Time;durP1;ratioP1;P1;durP2;ratioP2;P2;SDS_P1;SDS_P2;PMS_P1;PMS_P2;Temp;Humidity;BMP_temperature;BMP_pressure;BME280_temperature;BME280_humidity;BME280_pressure;Samples;Min_cycle;Max_cycle;Signal;HPM_P1;HPM_P2
2023/10/16 00:01:09;;;;;;;8.40;4.57;;;2.80;94.80;;;2.15;95.28;98589.69;4993603;28;20474;-73
2023/10/16 00:03:38;;;;;;;7.70;4.43;;;2.80;94.90;;;2.24;94.88;98586.97;5001827;28;20482;-71
2023/10/16 00:06:11;;;;;;;5.33;4.60;;;2.90;94.60;;;1.83;95.22;98533.13;4986914;28;20458;-71
2023/10/16 00:08:47;;;;;;;5.50;4.70;;;2.80;94.00;;;2.12;95.32;98591.66;5003304;28;20587;-72
2023/10/16 00:11:17;;;;;;;5.83;4.50;;;2.80;93.80;;;1.97;95.77;98575.28;5001140;28;21237;-71
2023/10/16 00:13:47;;;;;;;7.30;4.90;;;2.70;93.60;;;1.94;96.25;98588.06;5002437;28;20548;-71
2023/10/16 00:16:16;;;;;;;5.63;4.67;;;2.70;94.00;;;2.02;96.07;98579.34;4988994;28;20454;-71
2023/10/16 00:18:45;;;;;;;5.40;4.23;;;2.70;94.30;;;2.03;96.23;98575.69;5005811;28;20529;-71
2023/10/16 00:21:14;;;;;;;5.10;4.43;;;2.70;94.30;;;2.10;95.34;98582.13;4993631;28;20857;-72
2023/10/16 00:23:42;;;;;;;5.60;4.80;;;2.70;94.40;;;2.04;95.52;98580.03;5005514;28;20564;-71
2023/10/16 00:26:12;;;;;;;5.47;4.73;;;2.70;94.00;;;1.96;96.55;98576.28;5004139;28;20474;-71
2023/10/16 00:28:44;;;;;;;5.50;3.90;;;2.70;94.50;;;2.17;98.36;98580.53;5006182;28;20910;-71
2023/10/16 00:31:12;;;;;;;6.90;4.40;;;2.80;96.10;;;2.30;97.59;98579.34;4993662;28;20960;-71
2023/10/16 00:33:40;;;;;;;6.07;4.77;;;3.00;96.30;;;2.10;97.70;98574.13;4983175;28;21042;-72
2023/10/16 00:36:08;;;;;;;6.83;4.80;;;3.00;95.00;;;2.17;96.56;98567.19;5006112;28;20458;-72
2023/10/16 00:38:37;;;;;;;6.67;4.90;;;2.90;94.50;;;2.15;95.22;98569.16;4991310;28;20455;-71
2023/10/16 00:41:16;;;;;;;5.17;4.03;;;2.90;94.00;;;2.10;96.51;98566.13;5002225;28;20498;-73
2023/10/16 00:43:44;;;;;;;5.33;4.30;;;2.80;94.00;;;2.04;96.57;98561.38;5004971;28;20923;-72
2023/10/16 00:46:19;;;;;;;5.97;4.23;;;2.80;94.20;;;2.05;96.51;98560.41;5005627;28;20962;-73
2023/10/16 00:48:47;;;;;;;5.33;4.63;;;2.80;93.90;;;1.96;96.25;98560.28;5002406;28;20862;-72
2023/10/16 00:51:16;;;;;;;4.47;4.07;;;2.70;93.90;;;1.98;96.39;98565.47;4987826;28;21001;-73
2023/10/16 00:53:46;;;;;;;5.30;4.50;;;2.60;94.00;;;2.02;97.71;98579.34;5003323;28;21308;-71
2023/10/16 00:56:14;;;;;;;4.40;4.00;;;2.70;95.20;;;2.12;98.09;98577.47;5003052;28;20471;-73
2023/10/16 00:58:42;;;;;;;6.23;3.87;;;2.90;95.90;;;1.96;97.82;98576.28;4998951;28;20456;-72
2023/10/16 01:01:12;;;;;;;8.90;3.60;;;2.90;94.60;;;2.02;97.58;98568.66;4999044;28;21305;-73
2023/10/16 01:03:41;;;;;;;3.70;3.07;;;2.90;94.10;;;1.96;97.04;98575.41;5006997;28;20478;-73
2023/10/16 01:06:16;;;;;;;4.23;3.37;;;2.90;93.60;;;1.82;96.80;98576.75;4991252;28;20495;-73
2023/10/16 01:08:50;;;;;;;3.83;3.40;;;2.80;92.70;;;1.75;96.20;98573.81;5003911;28;20441;-73
2023/10/16 01:11:19;;;;;;;5.47;3.73;;;2.60;92.70;;;1.72;94.91;98578.59;5002578;28;20467;-72
2023/10/16 01:13:47;;;;;;;4.70;3.90;;;2.50;92.50;;;1.64;95.15;98572.19;5000015;28;20448;-72
2023/10/16 01:16:16;;;;;;;4.57;3.90;;;2.50;92.30;;;1.64;94.95;98572.19;4991485;28;20443;-71
2023/10/16 01:18:44;;;;;;;6.77;4.20;;;2.40;92.40;;;1.62;94.75;98573.31;5005543;28;20459;-73
2023/10/16 01:21:14;;;;;;;4.87;3.90;;;2.40;92.30;;;1.52;94.89;98565.34;5003800;28;21067;-72
2023/10/16 01:23:44;;;;;;;4.63;3.80;;;2.30;92.00;;;1.61;95.09;98553.84;5002482;28;20850;-70
2023/10/16 01:26:13;;;;;;;4.07;3.67;;;2.40;92.70;;;1.63;94.79;98562.50;5002944;28;20589;-73
2023/10/16 01:28:41;;;;;;;4.33;3.93;;;2.40;93.00;;;1.73;96.73;98574.94;5005633;28;20471;-72
2023/10/16 01:31:08;;;;;;;5.10;4.00;;;2.50;93.20;;;1.59;96.56;98529.13;5002350;28;20454;-72
2023/10/16 01:33:39;;;;;;;6.73;4.40;;;2.60;93.70;;;1.90;96.16;98560.88;4985928;28;20465;-72
2023/10/16 01:36:07;;;;;;;5.43;4.17;;;2.70;93.70;;;1.86;94.43;98561.31;5000139;28;20481;-72
2023/10/16 01:38:34;;;;;;;7.63;3.67;;;2.60;92.60;;;1.74;93.30;98557.97;4999946;28;20482;-72
2023/10/16 01:41:06;;;;;;;4.60;3.50;;;2.50;92.20;;;1.64;92.75;98566.00;4984108;28;20457;-73
2023/10/16 01:43:35;;;;;;;4.60;3.37;;;2.40;91.60;;;1.55;93.53;98562.38;4985536;28;20684;-74
2023/10/16 01:46:08;;;;;;;5.47;4.10;;;2.30;92.10;;;1.55;94.99;98551.72;5004395;28;20519;-74
2023/10/16 01:48:37;;;;;;;7.57;3.73;;;2.30;92.20;;;1.51;94.23;98555.66;4993132;28;21062;-74
2023/10/16 01:51:06;;;;;;;5.97;3.93;;;2.30;92.20;;;1.50;93.96;98544.16;5004383;28;20466;-74
2023/10/16 01:53:36;;;;;;;4.33;3.50;;;2.30;92.20;;;1.40;93.86;98548.69;4991780;28;20455;-72
2023/10/16 01:56:12;;;;;;;3.40;3.10;;;2.20;91.80;;;1.34;93.68;98543.94;4984569;28;20545;-73
2023/10/16 01:58:41;;;;;;;3.80;3.40;;;2.10;91.70;;;1.28;94.22;98540.00;4996712;28;20541;-72
2023/10/16 02:01:14;;;;;;;6.70;3.70;;;2.00;91.90;;;1.15;94.91;98535.00;4984025;28;20494;-73
2023/10/16 02:03:44;;;;;;;5.90;4.20;;;1.90;92.10;;;0.79;94.85;98466.41;5002345;28;20521;-72
2023/10/16 02:06:12;;;;;;;3.67;3.37;;;1.80;93.00;;;1.11;95.03;98538.94;4986406;28;20929;-72
2023/10/16 02:08:39;;;;;;;5.77;4.13;;;1.80;93.10;;;1.03;95.21;98547.63;5000339;28;20730;-72
2023/10/16 02:11:10;;;;;;;5.53;4.17;;;1.70;93.00;;;1.00;95.34;98534.59;5004371;28;20485;-73
2023/10/16 02:13:38;;;;;;;4.00;3.60;;;1.60;93.50;;;0.98;94.78;98533.88;4987816;28;20488;-72
2023/10/16 02:16:09;;;;;;;4.80;3.77;;;1.60;94.00;;;1.12;93.97;98530.78;5000485;28;21149;-71
2023/10/16 02:18:37;;;;;;;5.17;3.57;;;1.70;94.00;;;1.07;94.03;98541.03;5005113;28;20462;-71
2023/10/16 02:21:04;;;;;;;9.73;3.90;;;1.70;93.30;;;1.01;95.25;98528.31;4998548;28;20478;-70
2023/10/16 02:23:32;;;;;;;4.43;4.03;;;1.70;93.60;;;1.13;96.58;98524.47;5004249;28;20557;-71
2023/10/16 02:26:01;;;;;;;6.07;4.60;;;1.90;94.90;;;1.17;96.13;98538.34;4986582;28;20482;-74
2023/10/16 02:28:31;;;;;;;6.93;3.90;;;1.80;94.30;;;1.18;96.10;98528.56;5005426;28;20458;-72
2023/10/16 02:31:10;;;;;;;4.37;3.67;;;1.90;94.70;;;1.13;95.28;98532.47;4997285;28;20462;-70
2023/10/16 02:33:38;;;;;;;4.73;3.70;;;1.80;94.20;;;1.05;96.56;98528.84;5000400;28;20529;-71
2023/10/16 02:36:05;;;;;;;5.63;4.80;;;1.80;94.60;;;1.13;97.35;98535.13;4979428;28;20450;-72
2023/10/16 02:38:32;;;;;;;6.87;5.53;;;1.90;95.20;;;1.12;97.02;98530.78;4994445;28;20455;-73
2023/10/16 02:41:03;;;;;;;5.03;4.17;;;1.90;95.10;;;1.19;97.30;98535.56;5002794;28;20462;-73
2023/10/16 02:43:36;;;;;;;5.87;4.10;;;1.90;95.10;;;1.27;98.74;98533.00;5005518;28;20548;-72
2023/10/16 02:46:04;;;;;;;5.57;4.23;;;2.10;95.70;;;1.30;97.81;98530.09;4988947;28;20739;-71
2023/10/16 02:48:32;;;;;;;5.10;4.10;;;2.20;95.20;;;1.42;97.66;98531.56;4990045;28;21461;-70
2023/10/16 02:50:59;;;;;;;4.63;3.90;;;2.20;94.90;;;1.34;97.16;98522.63;4999421;28;20516;-71
2023/10/16 02:53:29;;;;;;;6.47;4.67;;;2.20;94.20;;;1.31;96.91;98529.09;4995436;28;20796;-71
2023/10/16 02:56:05;;;;;;;5.43;3.97;;;2.20;93.80;;;1.47;98.50;98532.97;5002265;28;20859;-72
2023/10/16 02:58:34;;;;;;;4.17;3.60;;;2.30;94.30;;;1.00;97.93;98468.09;4984296;28;20947;-71
2023/10/16 03:01:06;;;;;;;5.53;4.37;;;2.20;93.80;;;1.33;95.88;98535.13;5002527;28;20793;-72
2023/10/16 03:03:33;;;;;;;5.03;4.23;;;2.20;93.20;;;1.33;96.75;98536.91;4996138;28;21145;-72
2023/10/16 03:06:03;;;;;;;4.90;4.23;;;2.10;93.20;;;1.22;95.39;98544.09;5001120;28;20455;-72
2023/10/16 03:08:30;;;;;;;7.17;4.70;;;2.10;92.70;;;1.17;95.57;98532.19;4998397;28;20549;-72
2023/10/16 03:10:59;;;;;;;7.00;4.13;;;2.00;92.80;;;1.08;95.59;98540.03;4978906;28;20524;-72
2023/10/16 03:13:27;;;;;;;6.70;3.93;;;1.90;92.60;;;1.05;95.78;98544.81;4991790;28;20460;-71
2023/10/16 03:16:07;;;;;;;7.30;4.70;;;1.80;92.70;;;0.97;95.48;98542.84;4985823;28;20941;-72
2023/10/16 03:18:35;;;;;;;6.20;4.13;;;1.80;92.80;;;0.90;95.57;98547.91;5000853;28;20457;-72
2023/10/16 03:21:26;;;;;;;7.53;4.40;;;1.80;92.70;;;0.70;95.82;98531.13;4996548;28;20460;-72
2023/10/16 03:23:53;;;;;;;5.97;4.73;;;1.70;92.50;;;0.72;95.95;98545.13;4996857;28;20738;-72
2023/10/16 03:26:25;;;;;;;4.63;4.13;;;1.60;92.70;;;0.58;95.29;98554.31;4998617;28;20969;-71
2023/10/16 03:28:53;;;;;;;4.50;4.00;;;1.40;92.40;;;0.66;95.34;98550.97;4995223;28;20550;-72
2023/10/16 03:31:22;;;;;;;6.43;4.50;;;1.40;93.00;;;0.65;96.00;98549.28;4998130;28;20454;-72
2023/10/16 03:33:49;;;;;;;4.50;4.10;;;1.40;93.60;;;0.63;95.77;98546.78;5000010;28;20457;-70
2023/10/16 03:36:17;;;;;;;4.93;4.03;;;1.40;93.30;;;0.54;95.69;98553.78;4990447;28;20548;-70
2023/10/16 03:38:45;;;;;;;6.23;4.27;;;1.30;93.20;;;0.59;95.00;98539.22;4982382;28;20807;-70
2023/10/16 03:41:27;;;;;;;4.80;4.17;;;1.30;93.40;;;0.58;94.80;98535.72;4993596;28;20456;-72
2023/10/16 03:43:58;;;;;;;6.30;4.47;;;1.30;93.30;;;0.49;95.09;98528.56;4987539;28;20489;-73
2023/10/16 03:46:27;;;;;;;5.60;3.93;;;1.30;93.20;;;0.46;96.88;98545.63;5002913;28;20464;-72
2023/10/16 03:48:55;;;;;;;5.90;4.77;;;1.30;93.60;;;0.48;97.07;98542.84;4999457;28;20657;-71
2023/10/16 03:51:23;;;;;;;4.70;4.17;;;1.30;93.90;;;0.44;97.24;98536.97;4980566;28;20466;-71
2023/10/16 03:53:52;;;;;;;5.73;4.80;;;1.30;93.90;;;-0.11;97.50;98458.53;4985115;28;20584;-72
2023/10/16 03:56:20;;;;;;;6.43;5.10;;;1.30;94.00;;;0.38;98.32;98505.59;4987546;28;20457;-72
2023/10/16 03:58:47;;;;;;;8.37;4.80;;;1.40;94.60;;;0.58;97.52;98521.59;5002191;28;20454;-71
2023/10/16 04:01:20;;;;;;;8.43;5.50;;;1.40;94.70;;;0.59;96.96;98520.59;4981452;28;21043;-72
2023/10/16 04:03:56;;;;;;;6.10;4.30;;;1.40;94.70;;;0.56;97.78;98517.25;4995489;28;20462;-71
2023/10/16 04:06:25;;;;;;;8.10;4.37;;;1.40;94.60;;;0.09;96.89;98432.00;4997279;28;20495;-72
2023/10/16 04:08:55;;;;;;;5.17;4.47;;;1.40;94.60;;;0.53;97.54;98517.53;4979594;28;20459;-71
2023/10/16 04:11:25;;;;;;;7.37;4.83;;;1.40;94.30;;;0.58;96.99;98521.59;4986325;28;20555;-71
2023/10/16 04:13:53;;;;;;;5.60;4.60;;;1.40;94.40;;;0.64;96.06;98521.00;4998924;28;21035;-71
2023/10/16 04:16:42;;;;;;;5.40;4.40;;;1.40;94.00;;;0.45;95.70;98520.03;4992725;28;21181;-70
2023/10/16 04:21:54;;;;;;;5.83;4.40;;;1.20;93.20;;;-0.15;96.44;98465.09;4998572;28;20458;-72
2023/10/16 04:24:30;;;;;;;3.97;3.63;;;1.10;93.40;;;0.25;96.65;98522.66;5001685;28;20489;-70
2023/10/16 04:29:49;;;;;;;6.40;4.87;;;1.10;93.60;;;0.10;98.18;98524.03;4998824;28;21042;-70
2023/10/16 04:32:20;;;;;;;4.80;4.40;;;1.00;94.20;;;0.08;98.60;98526.81;4996924;28;20990;-71
2023/10/16 04:34:53;;;;;;;5.20;4.63;;;1.00;94.60;;;0.09;98.47;98525.84;4988621;28;20458;-71
2023/10/16 04:37:24;;;;;;;7.63;5.90;;;1.00;95.00;;;0.05;97.86;98539.53;5003081;28;20516;-71
2023/10/16 04:43:03;;;;;;;5.77;4.63;;;0.80;93.70;;;-0.29;99.09;98512.28;5000926;28;20476;-72
2023/10/16 04:45:39;;;;;;;8.17;4.40;;;0.80;94.40;;;-0.19;98.94;98528.25;4999394;28;20482;-72
2023/10/16 04:48:07;;;;;;;7.73;5.50;;;0.70;94.80;;;-0.19;98.14;98519.47;5001517;28;20464;-73
2023/10/16 04:50:40;;;;;;;5.20;4.70;;;0.70;94.90;;;-0.19;98.52;98522.13;4984595;28;20458;-70
2023/10/16 04:53:09;;;;;;;6.67;4.97;;;0.70;94.80;;;-0.19;98.38;98519.47;5003355;28;20462;-73
2023/10/16 04:55:53;;;;;;;6.13;5.10;;;0.70;94.70;;;-0.24;97.89;98532.28;5006815;28;20463;-74
2023/10/16 04:58:38;;;;;;;5.50;4.23;;;0.70;94.40;;;-0.25;97.95;98512.00;5004878;28;20450;-75
2023/10/16 05:06:49;;;;;;;9.80;5.40;;;0.70;94.10;;;-0.30;98.46;98521.25;5006176;28;20470;-74
2023/10/16 06:15:48;;;;;;;7.43;6.50;;;0.80;93.60;;;0.02;96.25;98537.13;4954440;28;20465;-69
2023/10/16 06:18:15;;;;;;;9.20;6.97;;;0.90;93.50;;;0.07;96.25;98540.22;4962060;28;20464;-68
2023/10/16 06:20:43;;;;;;;7.30;5.30;;;0.90;93.30;;;-0.01;96.65;98527.63;4979440;28;20472;-69
2023/10/16 06:23:11;;;;;;;11.10;6.77;;;0.90;93.10;;;0.02;96.29;98542.47;4994318;28;20475;-68
2023/10/16 06:25:38;;;;;;;8.10;6.83;;;0.90;93.10;;;0.18;95.76;98542.78;5004112;28;20489;-68
2023/10/16 06:28:11;;;;;;;8.47;7.13;;;1.00;93.50;;;0.27;95.44;98541.97;5005659;28;20460;-69
2023/10/16 06:30:38;;;;;;;8.00;6.00;;;1.00;93.20;;;0.11;95.85;98539.81;5002932;28;21041;-68
2023/10/16 06:33:06;;;;;;;11.10;7.80;;;1.00;92.70;;;0.03;96.63;98549.44;5002014;28;20463;-68
2023/10/16 06:35:35;;;;;;;9.47;6.80;;;1.00;92.70;;;0.12;96.85;98549.47;5004674;28;20464;-69
2023/10/16 06:38:10;;;;;;;7.70;5.80;;;1.10;92.90;;;0.28;96.37;98564.91;4991216;28;20455;-69
2023/10/16 06:40:40;;;;;;;9.53;6.80;;;1.10;92.70;;;0.32;95.29;98554.00;4989414;28;20866;-69
2023/10/16 06:43:10;;;;;;;11.93;7.40;;;1.20;92.50;;;0.35;95.59;98559.03;5000633;28;20656;-68
2023/10/16 06:45:42;;;;;;;9.70;7.03;;;1.20;92.70;;;0.45;95.54;98554.59;4982614;28;20466;-68
2023/10/16 06:48:14;;;;;;;8.17;6.30;;;1.30;92.70;;;0.07;95.55;98477.31;4984820;28;20464;-68
2023/10/16 06:50:45;;;;;;;9.90;7.33;;;1.40;92.90;;;0.77;95.44;98556.16;4999416;28;20600;-68
2023/10/16 06:53:13;;;;;;;8.00;6.43;;;1.50;92.70;;;0.93;94.25;98552.09;4992595;28;20456;-68
2023/10/16 06:55:40;;;;;;;8.43;6.80;;;1.70;92.80;;;1.14;94.59;98551.94;5000646;28;20462;-69
2023/10/16 06:58:09;;;;;;;9.70;6.60;;;1.80;92.50;;;1.26;93.29;98549.97;4972201;28;20474;-68
2023/10/16 07:00:38;;;;;;;50.10;44.90;;;2.00;91.90;;;1.10;93.26;98506.13;4994882;28;21074;-69
2023/10/16 07:03:12;;;;;;;9.50;7.40;;;2.10;91.70;;;1.24;92.87;98534.16;4996510;28;20905;-67
2023/10/16 07:05:48;;;;;;;9.17;6.90;;;2.10;91.10;;;1.49;92.57;98550.47;4983349;28;20623;-69
2023/10/16 07:08:20;;;;;;;12.68;8.50;;;2.20;91.00;;;1.38;92.10;98550.66;4994093;28;20446;-69
2023/10/16 07:10:50;;;;;;;9.73;7.37;;;2.30;90.30;;;1.17;93.00;98541.00;4992638;28;20601;-68
2023/10/16 07:13:27;;;;;;;8.43;7.20;;;2.20;90.00;;;1.41;92.51;98551.19;4996091;28;20467;-67
2023/10/16 07:15:57;;;;;;;7.60;6.17;;;2.20;90.20;;;1.63;92.03;98543.88;4978225;28;20478;-69
2023/10/16 07:18:25;;;;;;;9.83;7.23;;;2.40;90.60;;;1.71;91.21;98556.47;4992705;28;20483;-67
2023/10/16 07:20:59;;;;;;;12.33;7.73;;;2.50;90.10;;;1.61;91.33;98559.16;4999689;28;21303;-68
2023/10/16 07:23:29;;;;;;;9.90;6.67;;;2.50;89.00;;;1.81;91.33;98551.09;4999941;28;20829;-70
2023/10/16 07:25:58;;;;;;;8.30;6.60;;;2.50;89.40;;;1.97;90.77;98545.13;4999878;28;21205;-68
2023/10/16 07:28:28;;;;;;;9.10;6.47;;;2.60;89.90;;;2.16;90.92;98546.84;4987538;28;20898;-67
2023/10/16 07:30:57;;;;;;;9.17;7.63;;;2.70;90.20;;;1.98;89.77;98510.34;4988022;28;20870;-70
2023/10/16 07:33:25;;;;;;;10.77;7.30;;;2.90;89.30;;;2.35;88.87;98547.72;4997468;28;20467;-70
2023/10/16 07:35:54;;;;;;;13.07;9.03;;;3.00;88.80;;;2.38;89.14;98542.13;5007130;28;20459;-69
2023/10/16 07:38:23;;;;;;;9.33;7.37;;;3.10;88.20;;;2.60;88.82;98548.00;4996049;28;20458;-67
2023/10/16 07:40:52;;;;;;;11.60;9.43;;;3.20;87.80;;;2.75;88.05;98540.31;4987033;28;20827;-68
2023/10/16 07:43:26;;;;;;;13.60;8.37;;;3.40;88.40;;;2.80;88.46;98546.03;4987187;28;20949;-69
2023/10/16 07:46:13;;;;;;;15.43;9.20;;;3.50;87.60;;;2.93;87.10;98540.28;4998011;28;20476;-69
2023/10/16 07:48:44;;;;;;;10.50;8.43;;;3.60;86.90;;;3.05;87.12;98546.25;4984145;28;20457;-68
2023/10/16 07:51:12;;;;;;;12.50;7.90;;;3.70;86.60;;;3.18;86.86;98541.34;4998068;28;20471;-69
2023/10/16 07:53:40;;;;;;;15.10;9.10;;;3.80;85.90;;;3.35;86.79;98533.47;5002758;28;20463;-69
2023/10/16 07:56:19;;;;;;;11.70;8.23;;;3.90;86.30;;;3.44;85.39;98537.03;5003784;28;20472;-68
2023/10/16 07:58:48;;;;;;;12.33;9.03;;;4.10;85.20;;;3.80;83.89;98542.25;5000559;28;20455;-69
2023/10/16 08:01:32;;;;;;;11.10;8.30;;;4.40;85.60;;;4.00;83.73;98547.34;5004351;28;20509;-68
2023/10/16 08:03:59;;;;;;;11.03;8.67;;;4.50;84.80;;;4.24;84.03;98520.72;5002150;28;20463;-68
2023/10/16 08:06:28;;;;;;;13.10;9.10;;;4.80;85.10;;;4.57;81.73;98537.84;4997922;28;20975;-69
2023/10/16 08:11:42;;;;;;;11.83;8.30;;;5.10;83.20;;;4.95;81.00;98535.56;4981400;28;20586;-68
2023/10/16 08:14:10;;;;;;;13.43;9.87;;;5.40;83.00;;;5.07;77.79;98536.88;4998262;28;20998;-67
2023/10/16 08:16:39;;;;;;;12.87;9.00;;;5.70;81.50;;;4.89;78.51;98554.97;4979442;28;20463;-71
2023/10/16 08:19:14;;;;;;;11.73;8.93;;;5.70;80.30;;;5.00;78.64;98530.53;5001770;28;20546;-69
2023/10/16 08:21:43;;;;;;;11.70;8.50;;;5.70;80.10;;;5.16;78.26;98531.53;4984866;28;20917;-69
2023/10/16 08:24:13;;;;;;;10.40;8.60;;;5.80;80.70;;;5.43;78.06;98537.56;4997491;28;20554;-69
2023/10/16 08:26:44;;;;;;;12.20;8.23;;;5.90;80.50;;;5.25;76.67;98504.56;4983790;28;20472;-69
2023/10/16 08:29:19;;;;;;;10.43;9.17;;;6.10;79.90;;;5.34;77.25;98545.59;4996128;28;20457;-69
2023/10/16 08:32:27;;;;;;;10.13;8.13;;;6.00;79.80;;;5.43;76.46;98533.03;4994133;28;20513;-68
2023/10/16 08:34:40;;;;;;;11.73;9.07;;;6.10;79.10;;;5.29;76.71;98529.19;4998775;28;20452;-68
2023/10/16 08:37:11;;;;;;;11.90;8.50;;;6.00;79.00;;;5.70;76.51;98532.81;5005550;28;20458;-68
2023/10/16 08:39:47;;;;;;;15.33;9.50;;;6.20;79.30;;;5.49;76.38;98526.16;5004177;28;20643;-68
2023/10/16 08:42:20;;;;;;;13.53;8.83;;;6.30;78.60;;;5.68;75.75;98517.72;4999133;28;20918;-68
2023/10/16 08:44:51;;;;;;;10.93;8.73;;;6.30;79.10;;;5.89;75.28;98513.66;4985887;28;20953;-70
2023/10/16 08:47:24;;;;;;;11.13;8.60;;;6.50;78.90;;;6.18;74.35;98516.75;5002705;28;20511;-68
2023/10/16 08:49:55;;;;;;;11.77;8.63;;;6.70;78.30;;;5.44;76.49;98480.28;4986493;28;20483;-68
2023/10/16 08:52:33;;;;;;;12.30;9.23;;;6.50;78.20;;;5.96;74.80;98519.97;5000509;28;20464;-68
2023/10/16 08:55:14;;;;;;;13.00;8.57;;;6.60;78.20;;;6.40;74.55;98522.34;4988088;28;20498;-69
2023/10/16 08:57:43;;;;;;;12.03;7.90;;;6.80;78.40;;;6.34;75.00;98532.75;4997393;28;20465;-68
2023/10/16 09:00:19;;;;;;;16.53;9.67;;;7.00;78.40;;;6.07;73.79;98520.66;4985089;28;21128;-69
2023/10/16 09:02:51;;;;;;;10.60;8.73;;;6.80;77.70;;;6.11;75.28;98527.34;4996106;28;20533;-68
2023/10/16 09:05:20;;;;;;;13.87;8.93;;;6.80;78.00;;;5.99;76.00;98531.38;5001783;28;20529;-69
2023/10/16 09:07:49;;;;;;;11.00;8.63;;;6.70;78.50;;;6.24;74.99;98524.94;4997225;28;20452;-68
2023/10/16 09:10:21;;;;;;;12.73;9.13;;;6.90;78.20;;;6.34;74.69;98534.63;4999005;28;20961;-69
2023/10/16 09:12:55;;;;;;;14.03;8.93;;;7.00;78.20;;;6.36;74.95;98538.78;4998353;28;20574;-68
2023/10/16 09:15:24;;;;;;;14.73;8.43;;;7.10;77.90;;;6.58;74.12;98530.13;4987753;28;20921;-69
2023/10/16 09:17:54;;;;;;;9.80;8.17;;;7.10;77.80;;;6.75;72.78;98542.47;4997094;28;20559;-69
2023/10/16 09:20:33;;;;;;;9.43;7.87;;;7.30;77.60;;;6.90;72.58;98538.97;4998520;28;20455;-68
2023/10/16 09:23:02;;;;;;;11.00;8.07;;;7.40;77.40;;;7.04;71.61;98540.06;4998395;28;20460;-69
2023/10/16 09:25:31;;;;;;;9.27;8.27;;;7.60;77.20;;;7.44;71.19;98534.50;4995064;28;20637;-69
2023/10/16 09:27:58;;;;;;;14.30;9.07;;;7.90;76.90;;;7.08;72.88;98536.84;4997219;28;20547;-70
2023/10/16 09:30:31;;;;;;;11.87;9.67;;;7.90;76.90;;;6.94;72.68;98529.56;5002350;28;20462;-69
2023/10/16 09:33:00;;;;;;;13.33;8.80;;;7.70;76.40;;;7.47;71.90;98518.00;4986611;28;20462;-69
2023/10/16 09:35:32;;;;;;;10.53;8.27;;;8.00;76.90;;;7.60;71.12;98528.97;4990423;28;20460;-68
2023/10/16 09:38:15;;;;;;;11.87;7.83;;;8.10;76.30;;;7.43;70.07;98516.72;4994627;28;20507;-68
2023/10/16 09:40:44;;;;;;;12.50;9.87;;;8.20;75.50;;;7.65;71.21;98531.94;4991303;28;20465;-70
2023/10/16 09:43:24;;;;;;;9.00;7.80;;;8.20;75.90;;;7.89;68.75;98527.31;5000486;28;20557;-69
2023/10/16 09:46:21;;;;;;;13.53;9.00;;;8.40;75.10;;;7.72;69.39;98525.84;5008213;28;20483;-69
2023/10/16 09:48:44;;;;;;;9.10;7.70;;;8.40;74.70;;;8.12;66.83;98531.78;4993040;28;20479;-68
2023/10/16 09:51:13;;;;;;;9.73;8.73;;;8.50;74.00;;;8.06;68.23;98527.97;4989601;28;20459;-70
2023/10/16 09:53:41;;;;;;;11.13;7.90;;;8.60;74.10;;;7.89;67.77;98531.88;5003796;28;20539;-69
2023/10/16 09:56:12;;;;;;;10.93;8.20;;;8.60;73.80;;;7.99;66.91;98526.22;4979948;28;20443;-71
2023/10/16 09:58:45;;;;;;;9.03;7.63;;;8.60;73.40;;;7.97;67.38;98518.31;4996702;28;20448;-69
2023/10/16 10:01:23;;;;;;;8.37;7.33;;;8.60;73.40;;;8.23;67.47;98523.22;4999262;28;20462;-70
2023/10/16 10:03:51;;;;;;;9.47;7.70;;;8.70;73.30;;;7.97;66.00;98521.00;4998305;28;20661;-68
2023/10/16 10:06:21;;;;;;;8.10;6.63;;;8.70;72.30;;;7.80;66.83;98529.28;4992065;28;20889;-69
2023/10/16 10:09:22;;;;;;;9.67;6.60;;;8.60;72.30;;;8.18;65.89;98525.63;4994557;28;20460;-69
2023/10/16 10:12:04;;;;;;;7.30;6.60;;;8.60;72.20;;;8.62;63.66;98510.44;4980527;28;20464;-68
2023/10/16 10:14:40;;;;;;;7.50;6.70;;;9.00;71.20;;;8.76;62.77;98518.66;4997235;28;20461;-68
2023/10/16 10:17:11;;;;;;;9.30;6.73;;;9.20;70.60;;;8.82;63.21;98520.59;4992078;28;20456;-68
2023/10/16 10:19:40;;;;;;;7.30;6.10;;;9.30;70.20;;;8.97;61.29;98515.13;4998898;28;20457;-70
2023/10/16 10:22:17;;;;;;;7.47;6.77;;;9.50;69.60;;;8.95;62.09;98517.19;4992742;28;20818;-70
2023/10/16 10:24:51;;;;;;;9.23;6.67;;;9.50;69.30;;;9.11;61.23;98502.63;5001338;28;20488;-67
2023/10/16 10:27:18;;;;;;;7.23;6.53;;;9.50;68.80;;;9.09;60.77;98510.06;4999902;28;20848;-68
2023/10/16 10:29:48;;;;;;;8.97;6.20;;;9.60;67.80;;;9.05;60.06;98503.38;4995299;28;20941;-68
2023/10/16 10:32:16;;;;;;;7.50;5.80;;;9.60;67.50;;;9.29;59.57;98514.81;5003861;28;20550;-69
2023/10/16 10:34:47;;;;;;;10.50;6.30;;;9.70;67.30;;;9.25;58.70;98473.91;4993182;28;21322;-69
2023/10/16 10:37:44;;;;;;;6.33;5.30;;;9.90;66.60;;;9.14;58.63;98501.38;4999326;28;20538;-68
2023/10/16 10:40:15;;;;;;;7.73;5.67;;;9.80;65.80;;;9.22;58.90;98482.38;4991946;28;20989;-69
2023/10/16 10:42:45;;;;;;;8.57;6.23;;;9.90;65.40;;;9.56;59.07;98488.84;4976276;28;20476;-70
2023/10/16 10:45:20;;;;;;;6.40;5.77;;;10.00;64.50;;;9.46;59.56;98494.59;4996638;28;20472;-70
2023/10/16 10:47:47;;;;;;;6.10;5.37;;;10.00;64.60;;;9.54;59.56;98488.22;4982058;28;20505;-70
2023/10/16 10:50:17;;;;;;;6.83;6.13;;;10.10;64.90;;;9.70;58.64;98480.84;4985664;28;20457;-70
2023/10/16 10:52:47;;;;;;;6.57;5.10;;;10.20;64.60;;;9.46;59.23;98482.97;4996052;28;20858;-70
2023/10/16 10:55:22;;;;;;;7.07;5.33;;;10.10;64.30;;;9.45;58.00;98482.16;4981587;28;20543;-70
2023/10/16 10:57:58;;;;;;;5.00;4.00;;;10.10;63.00;;;9.37;57.54;98479.59;4994641;28;20533;-70
2023/10/16 11:00:45;;;;;;;5.20;4.47;;;10.00;62.70;;;9.52;58.45;98490.28;4999390;28;20609;-70
2023/10/16 11:03:30;;;;;;;5.63;4.97;;;10.10;63.20;;;9.44;58.40;98475.09;4975620;28;20484;-71
2023/10/16 11:05:58;;;;;;;3.90;3.50;;;10.00;62.80;;;9.59;56.10;98471.44;4997246;28;20471;-71
2023/10/16 11:08:29;;;;;;;3.10;2.70;;;10.10;61.80;;;9.37;54.96;98470.69;4993921;28;20460;-69
2023/10/16 11:10:57;;;;;;;2.93;2.63;;;10.00;60.10;;;9.39;53.97;98460.53;4995373;28;20469;-70
2023/10/16 11:13:26;;;;;;;2.77;2.50;;;9.90;60.60;;;9.35;54.42;98460.91;4997764;28;20529;-70
2023/10/16 11:15:57;;;;;;;5.80;2.53;;;10.00;59.40;;;9.26;54.71;98458.56;4997276;28;20451;-70
2023/10/16 11:18:27;;;;;;;3.40;2.57;;;9.90;60.00;;;9.23;54.99;98456.25;4997917;28;20466;-70
2023/10/16 11:20:57;;;;;;;2.97;2.50;;;9.80;60.10;;;9.17;54.70;98447.06;4992442;28;20470;-70
2023/10/16 11:23:31;;;;;;;3.00;2.73;;;9.70;60.00;;;9.00;55.62;98452.75;4989388;28;20467;-70
2023/10/16 11:25:59;;;;;;;3.43;2.60;;;9.60;60.20;;;8.99;56.72;98451.09;4994448;28;20615;-70
2023/10/16 11:28:31;;;;;;;3.63;3.20;;;9.60;61.00;;;9.37;55.61;98449.09;4983383;28;20456;-70
2023/10/16 11:31:01;;;;;;;3.50;3.20;;;9.80;61.10;;;9.34;56.23;98437.69;4994446;28;20515;-70
2023/10/16 11:33:34;;;;;;;5.57;3.00;;;9.90;61.10;;;9.17;55.81;98433.59;4976292;28;20463;-69
2023/10/16 11:36:04;;;;;;;3.47;3.10;;;9.80;60.40;;;9.24;57.01;98433.66;4999219;28;20449;-70
2023/10/16 11:38:34;;;;;;;3.47;3.17;;;9.70;61.30;;;9.50;57.11;98419.53;4984304;28;20488;-70
2023/10/16 11:41:06;;;;;;;4.50;3.43;;;10.00;60.80;;;9.49;57.09;98424.06;4997565;28;20760;-69
2023/10/16 11:43:39;;;;;;;4.80;3.23;;;10.00;61.00;;;9.45;56.09;98421.97;4980569;28;20476;-70
2023/10/16 11:46:27;;;;;;;3.23;2.90;;;10.00;60.30;;;9.56;56.39;98412.50;4986663;28;20920;-69
2023/10/16 11:48:58;;;;;;;3.50;3.17;;;10.10;60.20;;;9.52;56.88;98408.50;5000753;28;20506;-70
2023/10/16 11:51:27;;;;;;;5.63;2.50;;;10.10;60.30;;;9.71;55.28;98409.66;4997130;28;20769;-74
2023/10/16 11:54:02;;;;;;;3.63;2.63;;;10.20;59.70;;;9.61;56.41;98410.84;4993553;28;20968;-70
2023/10/16 11:56:34;;;;;;;3.70;3.30;;;10.30;60.10;;;9.58;56.16;98395.06;4980734;28;20548;-69
2023/10/16 11:59:03;;;;;;;3.23;3.03;;;10.30;60.20;;;9.76;56.87;98391.84;5000208;28;20487;-71
2023/10/16 12:01:30;;;;;;;4.00;3.03;;;10.30;60.80;;;10.13;55.42;98399.66;5000460;28;20546;-70
2023/10/16 12:03:58;;;;;;;3.43;2.70;;;10.50;60.30;;;9.97;55.17;98405.41;5000930;28;20464;-70
2023/10/16 12:06:25;;;;;;;3.20;2.70;;;10.50;59.50;;;10.00;55.22;98396.91;5003183;28;20942;-69
2023/10/16 12:08:54;;;;;;;3.40;2.87;;;10.50;59.30;;;9.95;55.18;98402.91;5002638;28;20494;-68
2023/10/16 12:11:22;;;;;;;3.17;2.80;;;10.60;59.50;;;9.94;54.68;98397.72;4996114;28;20458;-70